Weather observations for the past three days for
Oskaloosa, Oskaloosa Municipal Airport
Imperial (Metric)
Date Time (cdt) Wind (mph) Vis. (mi.) Weather Sky Cond. Temperature (ºF) Relative Humidity Wind Chill (°F) Heat Index (°F) Pressure Precipitation (in)
Air Dwpt 6 hour altimeter (in) sea level (mb) 1 hr 3 hr 6 hr
Max. Min.
02 20:15 S 5 10.00 Fair CLR 81.7 74.8 80% 88 29.89 0.0
02 19:55 S 6 10.00 Fair CLR 82.4 75.7 80% 90 29.89 0.0
02 19:35 S 7 10.00 Fair CLR 85.1 76.1 75% 95 29.89 0.0
02 19:15 S 7 10.00 Fair CLR 87.1 77.2 72% 99 29.89 0.0
02 18:55 S 6 10.00 Fair CLR 88.9 77.4 96.1 88.9 69% 102 29.89 0.0
02 18:35 S 6 10.00 Fair CLR 90.7 77 64% 104 29.89 0.0
02 18:15 S 6 7.00 Fair CLR 92.5 77.2 61% 107 29.89 0.0
02 17:55 SW 5 10.00 Fair CLR 93.9 76.5 57% 108 29.9 0.0
02 17:35 SW 6 10.00 Fair CLR 94.8 75.4 53% 107 29.9 0.0
02 17:15 SW 7 10.00 Fair CLR 95.2 74.8 52% 107 29.9 0.0
02 16:55 SW 10 10.00 Fair CLR 95.5 73.6 49% 106 29.9 0.0
02 16:35 SW 7 10.00 Fair CLR 95.7 73.6 49% 106 29.9 0.0
02 16:15 SW 9 10.00 Fair CLR 95.9 71.2 45% 104 29.91 0.0
02 15:55 SW 8 10.00 Fair CLR 96.1 73.6 48% 107 29.91 0.0
02 15:35 SW 10 10.00 Fair CLR 95.9 74.3 50% 107 29.92 0.0
02 15:15 SW 15 10.00 Fair CLR 95.9 72.7 47% 105 29.92 0.0
02 14:55 SW 13 10.00 Fair CLR 95.9 72.5 47% 105 29.92 0.0
02 14:35 SW 10 G 16 10.00 Fair CLR 95.5 73.8 49% 106 29.93 0.0
02 14:15 SW 12 10.00 Fair CLR 95.4 72.9 48% 105 29.93 0.0
02 13:55 SW 10 10.00 Fair CLR 95.2 74.3 51% 106 29.94 0.0
02 13:35 SW 13 G 16 7.00 Fair CLR 94.5 72.5 49% 103 29.94 0.0
02 13:15 SW 9 5.00 Fair CLR 94.3 74.3 52% 105 29.94 0.0
02 12:55 SW 8 7.00 Fair CLR 93.2 73.4 93.2 74.3 53% 103 29.95 0.0
02 12:35 SW 10 5.00 Fair CLR 92.5 72.7 53% 101 29.96 0.0
02 12:15 SW 8 5.00 Fair CLR 91.6 74.1 57% 102 29.97 0.0
02 11:55 SW 9 5.00 Fair CLR 91.2 72.7 55% 99 29.97 0.0
02 11:35 S 7 5.00 Fair CLR 90 73.2 58% 98 29.98 0.0
02 11:15 SW 10 5.00 Fair CLR 89.2 71.1 55% 95 29.98 0.0
02 10:55 SW 6 7.00 Fair CLR 89.6 72 56% 97 29.97 0.0
02 10:35 S 6 5.00 Fair CLR 88.2 73.8 62% 97 29.97 0.0
02 10:15 SW 6 5.00 Fair CLR 87.3 73.4 64% 95 29.97 0.0
02 09:55 S 6 5.00 Fair CLR 85.5 72 64% 92 29.97 0.0
02 09:35 S 6 5.00 Fair CLR 84.2 73 69% 91 29.97 0.0
02 09:15 S 5 5.00 Fair CLR 83.1 72.1 70% 89 29.98 0.0
02 08:55 SW 7 5.00 Fair CLR 82.6 72.1 71% 88 29.98 0.0
02 08:35 Calm 4.00 Fair CLR 80.2 72.5 77% 84 29.98 0.0
02 08:15 S 3 5.00 Fair CLR 78.1 72.1 82% 81 29.98 0.0
02 07:55 Calm 5.00 Fair CLR 76.1 71.1 84% 77 29.99 0.0
02 07:35 Calm 4.00 Fair CLR 74.5 70.2 86% 29.99 0.0
02 07:15 W 3 4.00 Fair CLR 74.7 69.4 84% 29.98 0.0
02 06:55 NW 7 5.00 Fair CLR 75.6 69.6 77.9 72.1 82% 76 29.99 0.0
02 06:35 W 12 G 29 7.00 Fair CLR 73.2 69.4 88% 29.97 0.0
02 06:15 S 6 7.00 Fair CLR 72.5 68.9 89% 29.95 0.0
02 05:55 S 7 5.00 Fair CLR 72.1 68.9 90% 29.95 0.0
02 05:35 S 6 5.00 Fair CLR 72.5 68.5 87% 29.95 0.0
02 05:15 S 6 7.00 Fair CLR 72.1 68.4 88% 29.95 0.0
02 04:55 S 6 5.00 Fair CLR 73 68.4 85% 29.95 0.0
02 04:35 S 7 5.00 Fair CLR 72.9 68.4 86% 29.95 0.0
02 04:15 S 6 7.00 Fair CLR 73 68 84% 29.95 0.0
02 03:55 S 5 5.00 Fair CLR 74.7 68.5 81% 29.95 0.0
02 03:35 SW 6 7.00 Fair CLR 74.3 68.5 82% 29.95 0.0
02 03:15 S 6 5.00 Fair CLR 74.5 68.4 81% 29.95 0.0
02 02:55 S 6 4.00 Fair CLR 73.9 68.4 83% 29.94 0.0
02 02:35 S 6 5.00 Fair CLR 74.5 68.5 82% 29.93 0.0
02 02:15 S 8 5.00 Fair CLR 75.2 68.5 80% 76 29.92 0.0
02 01:55 S 9 5.00 Fair CLR 75.7 68.5 78% 77 29.93 0.0
02 01:35 S 7 5.00 Fair CLR 76.1 68.5 78% 77 29.94 0.0
02 01:15 S 9 7.00 Fair CLR 75.6 68.5 79% 76 29.94 0.0
02 00:55 S 7 5.00 Fair CLR 74.3 68.4 87.8 74.3 82% 29.94 0.0
02 00:35 S 7 7.00 Fair CLR 75 68.4 80% 76 29.94 0.0
02 00:15 S 3 5.00 Fair CLR 75.2 68.5 80% 76 29.95 0.0
01 23:55 S 3 7.00 Fair CLR 74.3 68.9 83% 29.95 0.0
01 23:35 S 5 7.00 Fair CLR 74.8 69.1 82% 29.94 0.0
01 23:15 S 6 10.00 Fair CLR 74.8 69.3 83% 29.94 0.0
01 22:55 S 6 10.00 Fair CLR 75.6 69.8 82% 76 29.94 0.0
01 22:35 S 6 10.00 Fair CLR 76.3 70 81% 77 29.95 0.0
01 22:15 S 6 10.00 Fair CLR 77 70 79% 79 29.95 0.0
01 21:55 S 8 10.00 Fair CLR 76.8 70.2 80% 78 29.94 0.0
01 21:35 S 5 10.00 Fair CLR 78.6 70.3 76% 81 29.94 0.0
01 20:50 S 9 10.00 Fair CLR 79 71.1 77% 82 29.92 0.0
01 20:35 S 9 10.00 Fair CLR 79 71.4 78% 82 29.92 0.0
01 20:15 S 7 10.00 Fair CLR 79.5 72 78% 83 29.92 0.0
01 19:55 S 8 10.00 Fair CLR 80.4 73.2 79% 85 29.92 0.0
01 19:35 S 7 10.00 Fair CLR 82.9 74.5 76% 90 29.92 0.0
01 19:15 S 6 10.00 Fair CLR 85.8 74.7 69% 94 29.92 0.0
01 18:55 S 5 10.00 Fair CLR 88 75.7 95.9 88 67% 99 29.92 0.0
01 18:35 S 5 10.00 Fair CLR 90.5 77.4 65% 104 29.93 0.0
01 18:15 S 3 7.00 Fair CLR 91.9 77.5 63% 107 29.93 0.0
01 17:55 S 6 10.00 Fair CLR 93.2 75.7 57% 106 29.93 0.0
01 17:35 S 5 10.00 Fair CLR 94.5 76.1 55% 108 29.93 0.0
01 17:15 SW 7 10.00 Fair CLR 95 72.7 49% 104 29.93 0.0
01 16:55 SW 7 10.00 Fair CLR 95.2 71.1 46% 103 29.93 0.0
01 16:35 SW 7 10.00 Fair CLR 95.9 73.9 49% 107 29.93 0.0
01 16:15 SW 9 10.00 Fair CLR 95.9 71.2 45% 104 29.93 0.0
01 15:55 SW 10 10.00 Fair CLR 95.9 70.7 44% 103 29.94 0.0
01 15:35 SW 9 10.00 Fair CLR 95.9 70.9 44% 103 29.94 0.0
01 15:15 SW 12 10.00 Fair CLR 95.9 71.1 45% 104 29.94 0.0
01 14:55 SW 9 10.00 Fair CLR 95.7 71.8 46% 104 29.95 0.0
01 14:35 SW 10 10.00 Fair CLR 95.7 71.2 45% 104 29.95 0.0
01 14:15 SW 14 7.00 Fair CLR 95.5 71.6 46% 104 29.96 0.0
01 13:55 SW 12 G 16 7.00 Fair CLR 95 71.6 47% 103 29.96 0.0
01 13:35 SW 9 7.00 Fair CLR 94.6 71.8 48% 103 29.97 0.0
01 13:15 SW 8 7.00 Fair CLR 94.1 72.3 49% 103 29.97 0.0
01 12:55 SW 9 7.00 Fair CLR 93.4 72.3 93.4 72.5 50% 102 29.98 0.0
01 12:35 SW 7 7.00 Fair CLR 92.7 72.7 52% 101 29.98 0.0
01 12:15 SW 10 7.00 Fair CLR 91.8 72.3 53% 100 29.98 0.0
01 11:55 SW 8 7.00 Fair CLR 91.4 73 55% 100 29.99 0.0
01 11:35 SW 7 10.00 Fair CLR 90 72.9 57% 98 29.99 0.0
01 11:15 SW 9 7.00 Fair CLR 89.2 72.1 57% 96 29.99 0.0
01 10:55 SW 9 7.00 Fair CLR 88.5 72.5 59% 96 29.99 0.0
01 10:35 SW 8 7.00 Fair CLR 87.1 72.7 62% 94 29.99 0.0
01 10:15 SW 10 7.00 Fair CLR 85.3 72.3 65% 92 29.99 0.0
01 09:55 SW 8 5.00 Fair CLR 83.3 71.8 68% 89 29.99 0.0
01 09:35 SW 10 7.00 Fair CLR 83.7 71.4 67% 89 29.99 0.0
01 09:15 S 6 7.00 Fair CLR 82.6 73 73% 88 29.99 0.0
01 08:55 S 6 4.00 Fair CLR 81.1 74.8 81% 87 29.99 0.0
01 08:35 S 6 5.00 Fair CLR 79.3 74.8 86% 83 30 0.0
01 07:55 S 5 5.00 Fair CLR 75.4 73.9 95% 74 29.99 0.0
01 07:35 S 5 4.00 Fair CLR 74.7 73.4 96% 29.99 0.0
01 07:15 S 6 4.00 Fair CLR 73.6 72.5 96% 29.98 0.0
01 06:55 S 5 5.00 Fair CLR 72.5 71.4 77.4 71.6 96% 29.98 0.0
01 06:35 S 3 7.00 Fair CLR 72.1 70.9 96% 29.97 0.0
01 06:15 S 3 5.00 Fair CLR 71.6 70.5 96% 29.98 0.0
01 05:55 S 5 5.00 Fair CLR 71.6 70.3 96% 29.97 0.0
01 05:35 S 3 7.00 Fair CLR 72.1 70.9 96% 29.97 0.0
01 05:15 Calm 7.00 Fair CLR 72.7 70.7 94% 29.97 0.0
01 04:55 Calm 7.00 Fair CLR 73.4 71.6 94% 29.97 0.0
01 04:35 Calm 7.00 Fair CLR 73.9 72.5 95% 29.97 0.0
01 04:10 Calm 7.00 Fair CLR 73.8 71.4 92% 29.97 0.0
01 03:55 Calm 7.00 Fair CLR 75.2 72.9 92% 74 29.96 0.0
01 03:35 Calm 7.00 Fair CLR 74.5 72.7 94% 29.96 0.0
01 03:15 SW 5 7.00 Fair CLR 75.4 72.9 92% 75 29.96 0.0
01 02:55 Calm 7.00 Fair CLR 76.5 73.4 90% 77 29.96 0.0
01 02:35 W 3 7.00 Fair CLR 76.1 73.4 91% 76 29.96 0.0
01 02:15 W 3 5.00 Fair CLR 76.8 73.6 90% 78 29.97 0.0
01 01:55 Calm 5.00 Fair CLR 77 74.1 91% 78 29.97 0.0
01 01:35 W 3 7.00 Fair CLR 77 73.8 90% 78 29.97 0.0
01 01:15 SW 5 7.00 Fair CLR 77.4 73.9 89% 79 29.97 0.0
01 00:55 SW 3 7.00 Fair CLR 76.8 74.1 88.7 76.3 91% 78 29.97 0.0
01 00:35 SW 3 5.00 Fair CLR 77 74.3 91% 78 29.97 0.0
01 00:15 SW 5 7.00 Fair CLR 76.6 74.3 93% 77 29.96 0.0
31 23:55 S 5 5.00 Fair CLR 77 74.7 93% 78 29.96 0.0
31 23:35 S 5 7.00 Fair CLR 77.2 74.8 93% 78 29.95 0.0
31 23:15 S 5 7.00 Fair CLR 77.9 74.8 90% 80 29.95 0.0
31 23:00 S 5 7.00 Fair CLR 78.1 74.7 89% 81 29.95 0.0
31 22:15 S 5 7.00 Fair CLR 79 75.6 89% 83 29.94 0.0
31 21:55 S 5 7.00 Fair CLR 79.2 76.1 90% 83 29.95 0.0
31 21:35 S 6 7.00 Fair CLR 79.7 76.5 90% 85 29.94 0.0
31 21:15 S 5 5.00 Fair CLR 80.4 76.8 89% 87 29.94 0.0
31 20:55 S 5 7.00 Fair CLR 80.6 77 89% 87 29.94 0.0
31 20:35 SW 6 5.00 Fair CLR 81.5 77 86% 89 29.93 0.0
31 20:15 SW 5 5.00 Fair CLR 82.6 77.4 84% 92 29.93 0.0
31 19:55 SW 5 5.00 Fair CLR 83.8 77.7 82% 94 29.92 0.0
31 19:35 SW 5 5.00 Fair CLR 86 78.3 78% 99 29.92 0.0
31 19:15 SW 3 5.00 Fair CLR 87.8 78.4 74% 102 29.92 0.0
31 18:35 SW 5 5.00 Fair CLR 90 78.8 70% 106 29.92 0.0
31 18:15 W 5 5.00 Fair CLR 90.9 78.1 66% 106 29.92 0.0
31 17:55 SW 7 7.00 Fair CLR 91.8 77.7 64% 107 29.92 0.0
31 17:35 SW 7 5.00 Fair CLR 91.8 76.6 61% 105 29.91 0.0
31 17:15 SW 8 5.00 Fair CLR 92.7 77.2 61% 107 29.92 0.0
31 16:55 SW 7 7.00 Fair CLR 92.7 76.5 59% 106 29.92 0.0
31 16:35 SW 8 7.00 Fair CLR 93 75.7 57% 105 29.91 0.0
31 16:15 SW 8 7.00 Fair CLR 92.8 75.7 58% 105 29.91 0.0
31 15:35 SW 9 7.00 Fair CLR 92.5 76.1 59% 105 29.91 0.0
31 15:15 SW 6 7.00 Fair CLR 92.7 75.7 58% 105 29.92 0.0
31 14:55 SW 7 7.00 Fair CLR 92.7 75.4 57% 104 29.92 0.0
31 14:35 SW 7 4.00 Fair CLR 92.1 75.2 58% 104 29.93 0.0
31 14:15 SW 6 5.00 Fair CLR 91.9 74.7 57% 103 29.92 0.0
31 13:55 SW 6 4.00 Fair CLR 90.5 73.2 57% 99 29.92 0.0
31 13:35 SW 6 5.00 Fair CLR 90.5 73.8 58% 100 29.92 0.0
31 13:15 SW 6 3.00 Fair CLR 89.1 72.9 59% 97 29.92 0.0
31 12:55 SW 6 4.00 Fair CLR 88.7 72.9 90.5 76.1 60% 96 29.92 0.0
31 12:35 SW 6 5.00 Fair CLR 90 72.5 57% 98 29.92 0.0
31 12:15 W 8 4.00 Fair CLR 89.4 72.1 57% 97 29.93 0.0
31 11:55 W 8 5.00 Fair CLR 89.1 71.4 56% 96 29.92 0.0
31 11:35 W 10 10.00 Fair CLR 88.2 70.7 56% 94 29.93 0.0
31 11:15 W 15 G 20 7.00 Fair CLR 87.3 70 57% 92 29.93 0.0
31 10:55 SW 14 G 18 7.00 Fair CLR 86.5 70.3 59% 92 29.93 0.0
31 10:35 SW 14 G 20 7.00 Fair CLR 85.5 70 60% 90 29.92 0.0
31 10:15 W 13 7.00 Fair CLR 84.7 69.8 61% 89 29.93 0.0
31 09:55 SW 10 7.00 Fair CLR 83.8 69.1 61% 88 29.92 0.0
31 09:35 SW 12 G 17 7.00 Fair CLR 82.6 69.3 64% 86 29.91 0.0
31 09:15 SW 15 G 21 7.00 Fair CLR 81.9 67.5 62% 85 29.91 0.0
31 08:55 SW 15 G 22 7.00 Fair CLR 82.2 67.5 61% 85 29.9 0.0
31 08:35 SW 13 G 20 5.00 Fair CLR 81.3 67.5 63% 84 29.9 0.0
31 08:15 SW 12 G 20 5.00 Fair CLR 80.2 66.9 64% 83 29.9 0.0
31 07:55 SW 13 G 17 5.00 Fair CLR 78.8 66.6 66% 81 29.9 0.0
31 07:35 SW 10 7.00 Fair CLR 78.3 66.2 67% 80 29.89 0.0
31 07:15 SW 13 7.00 Fair CLR 77 66.2 69% 79 29.88 0.0
31 06:55 SW 10 5.00 Fair CLR 76.1 66.4 77.4 73.8 72% 78 29.88 0.0
31 06:35 S 10 7.00 Fair CLR 75.6 66.4 73% 77 29.88 0.0
31 06:15 S 9 7.00 Fair CLR 75.2 66.6 75% 76 29.88 0.0
31 05:55 S 9 7.00 Fair CLR 75.2 66.7 75% 76 29.88 0.0
31 05:35 S 8 7.00 Fair CLR 74.8 67.1 77% 29.88 0.0
31 05:15 SW 8 7.00 Fair CLR 75.2 67.3 77% 76 29.88 0.0
31 04:55 S 8 7.00 Fair CLR 75 67.6 78% 76 29.88 0.0
31 04:35 S 8 7.00 Fair CLR 74.5 68.2 81% 29.88 0.0
31 04:15 S 8 7.00 Fair CLR 73.8 68.4 83% 29.88 0.0
31 03:55 S 7 7.00 Fair CLR 73.8 68.9 85% 29.88 0.0
31 03:35 S 6 7.00 Fair CLR 74.3 68.9 83% 29.88 0.0
31 03:15 S 7 7.00 Fair CLR 74.7 69.3 83% 29.88 0.0
31 02:55 S 7 7.00 Fair CLR 74.7 69.3 83% 29.88 0.0
31 02:35 S 6 7.00 Fair CLR 75.2 69.3 82% 76 29.88 0.0
31 02:15 S 8 10.00 Fair CLR 75.6 69.8 82% 76 29.88 0.0
31 01:55 S 8 7.00 Fair CLR 76.1 69.8 81% 77 29.88 0.0
31 01:35 S 8 7.00 Fair CLR 76.8 69.8 79% 78 29.89 0.0
31 01:15 S 8 7.00 Fair CLR 77.2 69.8 78% 79 29.89 0.0
31 00:55 S 9 7.00 Fair CLR 77.4 69.8 83.5 76.6 78% 79 29.89 0.0
31 00:35 S 9 7.00 Fair CLR 77.7 70 77% 80 29.89 0.0
31 00:15 S 9 7.00 Fair CLR 77.9 70.3 78% 80 29.88 0.0
30 23:55 S 9 7.00 Fair CLR 78.8 70.3 75% 81 29.88 0.0
30 23:35 S 9 7.00 Fair CLR 79.7 70.3 73% 83 29.89 0.0
30 23:15 S 10 7.00 Fair CLR 79.3 70.7 75% 82 29.88 0.0
30 22:55 S 9 7.00 Fair CLR 77.9 71.4 81% 80 29.89 0.0
30 22:35 SE 7 7.00 Fair CLR 76.6 72.1 86% 78 29.89 0.0
30 22:15 SE 6 7.00 Fair CLR 77.4 72.7 86% 79 29.89 0.0
30 21:55 SE 8 7.00 Fair CLR 78.6 73.2 84% 82 29.89 0.0
30 21:35 SE 10 7.00 Fair CLR 78.8 73.6 84% 82 29.89 0.0
30 21:15 SE 9 7.00 Fair CLR 78.8 74.3 86% 82 29.89 0.0
30 20:55 SE 8 7.00 Fair CLR 78.3 74.5 88% 81 29.89 0.0
Date Time (cdt) Wind (mph) Vis. (mi.) Weather Sky Cond. Air Dwpt Max. Min. Relative Humidity Wind Chill (°F) Heat Index (°F) altimeter (in) sea level (mb) 1 hr 3 hr 6 hr
6 hour
Temperature (ºF) Pressure Precipitation (in)